createdAt,value
2018-12-05T00:00:03.643Z,0.4
2018-12-05T00:03:09.610Z,0.4
2018-12-05T00:06:15.634Z,0.4
2018-12-05T00:09:21.657Z,0.4
2018-12-05T00:12:27.599Z,0.4
2018-12-05T00:15:33.732Z,0.4
2018-12-05T00:18:42.408Z,0.4
2018-12-05T00:21:48.345Z,0.4
2018-12-05T00:24:54.506Z,0.4
2018-12-05T00:28:00.588Z,0.4
2018-12-05T00:31:06.525Z,0.4
2018-12-05T00:34:12.534Z,0.5
2018-12-05T00:37:18.570Z,0.4
2018-12-05T00:40:24.847Z,0.4
2018-12-05T00:43:30.766Z,0.4
2018-12-05T00:46:36.731Z,0.4
2018-12-05T00:49:42.802Z,0.4
2018-12-05T00:52:48.828Z,0.4
2018-12-05T00:55:54.811Z,0.4
2018-12-05T00:59:00.874Z,0.4
2018-12-05T01:02:06.756Z,0.4
2018-12-05T01:05:12.715Z,0.4
2018-12-05T01:08:18.757Z,0.4
2018-12-05T01:11:24.639Z,0.4
2018-12-05T01:14:30.596Z,0.4
2018-12-05T01:17:36.543Z,0.4
2018-12-05T01:20:42.487Z,0.4
2018-12-05T01:23:48.452Z,0.4
2018-12-05T01:26:54.524Z,0.4
2018-12-05T01:30:00.406Z,0.4
2018-12-05T01:33:06.547Z,0.4
2018-12-05T01:36:12.445Z,0.4
2018-12-05T01:39:18.548Z,0.4
2018-12-05T01:42:24.421Z,0.4
2018-12-05T01:45:30.366Z,0.4
2018-12-05T01:48:39.101Z,0.4
2018-12-05T01:51:45.048Z,0.4
2018-12-05T01:54:51.064Z,0.4
2018-12-05T01:57:57.070Z,0.4
2018-12-05T02:01:03.031Z,0.4
2018-12-05T02:04:08.922Z,0.4
2018-12-05T02:07:14.877Z,0.4
2018-12-05T02:10:21.011Z,0.4
2018-12-05T02:13:28.248Z,0.4
2018-12-05T02:16:34.157Z,0.4
2018-12-05T02:19:40.040Z,0.4
2018-12-05T02:22:46.094Z,0.4
2018-12-05T02:25:51.953Z,0.4
2018-12-05T02:28:57.929Z,0.4
2018-12-05T02:32:03.841Z,0.4
2018-12-05T02:35:09.812Z,0.4
2018-12-05T02:38:15.786Z,0.4
2018-12-05T02:41:21.652Z,0.4
2018-12-05T02:44:27.797Z,0.4
2018-12-05T02:47:33.728Z,0.4
2018-12-05T02:50:39.871Z,0.4
2018-12-05T02:53:45.788Z,0.4
2018-12-05T02:56:51.927Z,0.4
2018-12-05T02:59:57.890Z,0.4
2018-12-05T03:03:03.810Z,0.4
2018-12-05T03:06:09.809Z,0.4
2018-12-05T03:09:15.870Z,0.4
2018-12-05T03:12:21.929Z,0.4
2018-12-05T03:15:27.897Z,0.4
2018-12-05T03:18:33.951Z,0.4
2018-12-05T03:21:39.826Z,0.4
2018-12-05T03:24:45.768Z,0.4
2018-12-05T03:27:51.726Z,0.4
2018-12-05T03:30:57.787Z,0.4
2018-12-05T03:34:03.848Z,0.4
2018-12-05T03:37:09.920Z,0.4
2018-12-05T03:40:15.866Z,0.4
2018-12-05T03:43:21.834Z,0.5
2018-12-05T03:46:27.798Z,0.5
2018-12-05T03:49:33.850Z,0.4
2018-12-05T03:52:39.817Z,95.8
2018-12-05T03:55:45.721Z,118.8
2018-12-05T03:58:54.687Z,124.6
2018-12-05T04:02:00.767Z,127.4
2018-12-05T04:05:06.737Z,128.9
2018-12-05T04:08:12.788Z,129.6
2018-12-05T04:11:18.701Z,129.6
2018-12-05T04:14:24.698Z,130.3
2018-12-05T04:17:31.051Z,129.6
2018-12-05T04:20:37.028Z,129.6
2018-12-05T04:23:42.945Z,130.3
2018-12-05T04:26:48.946Z,130.3
2018-12-05T04:29:54.895Z,130.3
2018-12-05T04:33:00.871Z,130.3
2018-12-05T04:36:06.983Z,130.3
2018-12-05T04:39:12.995Z,129.6
2018-12-05T04:42:18.934Z,129.6
2018-12-05T04:45:25.064Z,128.9
2018-12-05T04:48:30.934Z,129.6
2018-12-05T04:51:36.933Z,129.6
2018-12-05T04:54:42.895Z,129.6
2018-12-05T04:57:48.770Z,130.3
2018-12-05T05:00:54.705Z,130.3
2018-12-05T05:04:00.583Z,131
2018-12-05T05:07:08.262Z,130.3
2018-12-05T05:10:14.323Z,130.3
2018-12-05T05:13:20.217Z,130.3
2018-12-05T05:16:26.299Z,130.3
2018-12-05T05:19:32.256Z,130.3
2018-12-05T05:22:38.220Z,130.3
2018-12-05T05:25:44.375Z,130.3
2018-12-05T05:28:50.436Z,130.3
2018-12-05T05:31:56.456Z,130.3
2018-12-05T05:35:02.387Z,129.6
2018-12-05T05:38:08.370Z,130.3
2018-12-05T05:41:14.327Z,130.3
2018-12-05T05:44:20.282Z,130.3
2018-12-05T05:47:26.246Z,130.3
2018-12-05T05:50:35.051Z,128.9
2018-12-05T05:53:41.028Z,129.6
2018-12-05T05:56:48.423Z,128.9
2018-12-05T05:59:54.437Z,128.9
2018-12-05T06:03:00.343Z,128.9
2018-12-05T06:06:06.282Z,128.9
2018-12-05T06:09:12.260Z,126.7
2018-12-05T06:16:24.086Z,475.2
2018-12-05T06:19:29.993Z,134.6
2018-12-05T06:22:35.982Z,136.8
2018-12-05T06:25:42.064Z,136.1
2018-12-05T06:28:48.019Z,136.1
2018-12-05T06:31:53.983Z,136.1
2018-12-05T06:34:59.951Z,136.1
2018-12-05T06:38:06.008Z,135.4
2018-12-05T06:41:12.171Z,126.7
2018-12-05T06:44:18.045Z,130.3
2018-12-05T06:47:24.034Z,131
2018-12-05T06:50:31.726Z,130.3
2018-12-05T06:53:38.669Z,131
2018-12-05T06:56:44.566Z,131.8
2018-12-05T06:59:50.789Z,126
2018-12-05T07:02:56.852Z,130.3
2018-12-05T07:06:02.727Z,131.8
2018-12-05T07:09:08.730Z,132.5
2018-12-05T07:12:14.634Z,133.2
2018-12-05T07:15:20.594Z,133.9
2018-12-05T07:18:26.550Z,134.6
2018-12-05T07:21:32.718Z,136.1
2018-12-05T07:24:38.597Z,136.1
2018-12-05T07:27:44.855Z,129.6
2018-12-05T07:30:50.913Z,139.7
2018-12-05T07:33:57.186Z,139.7
2018-12-05T07:37:03.344Z,142.6
2018-12-05T07:40:10.293Z,147.6
2018-12-05T07:43:16.555Z,129.6
2018-12-05T07:46:22.546Z,144
2018-12-05T07:49:28.503Z,142.6
2018-12-05T07:52:34.790Z,141.8
2018-12-05T07:55:40.852Z,141.8
2018-12-05T07:58:47.119Z,141.8
2018-12-05T08:01:57.952Z,112.3
2018-12-05T08:05:04.760Z,140.4
2018-12-05T08:08:11.049Z,139
2018-12-05T08:11:18.643Z,137.5
2018-12-05T08:14:26.211Z,136.1
2018-12-05T08:17:33.184Z,141.1
2018-12-05T08:20:39.646Z,141.1
2018-12-05T08:23:46.950Z,141.8
2018-12-05T08:26:54.034Z,142.6
2018-12-05T08:30:01.925Z,140.4
2018-12-05T08:33:08.357Z,144
2018-12-05T08:36:15.634Z,143.3
2018-12-05T08:39:22.239Z,143.3
2018-12-05T08:42:29.047Z,141.1
2018-12-05T08:45:36.313Z,141.1
2018-12-05T08:48:43.786Z,141.8
2018-12-05T08:51:50.969Z,144
2018-12-05T08:54:57.651Z,143.3
2018-12-05T08:58:04.417Z,143.3
2018-12-05T09:01:14.610Z,142.6
2018-12-05T09:04:22.065Z,143.3
2018-12-05T09:07:31.477Z,144
2018-12-05T09:10:37.831Z,144
2018-12-05T09:13:43.902Z,147.6
2018-12-05T09:16:50.287Z,144
2018-12-05T09:19:56.249Z,144
2018-12-05T09:23:02.404Z,143.3
2018-12-05T09:26:08.629Z,143.3
2018-12-05T09:29:18.145Z,143.3
2018-12-05T09:32:24.275Z,133.9
2018-12-05T09:35:30.520Z,128.9
2018-12-05T09:38:36.508Z,140.4
2018-12-05T09:41:42.465Z,139
2018-12-05T09:44:48.522Z,137.5
2018-12-05T09:47:54.487Z,136.8
2018-12-05T09:51:04.880Z,136.1
2018-12-05T09:54:12.119Z,136.1
2018-12-05T09:57:20.267Z,136.8
2018-12-05T10:00:26.535Z,137.5
2018-12-05T10:03:32.477Z,137.5
2018-12-05T10:06:38.514Z,136.8
2018-12-05T10:09:45.832Z,139
2018-12-05T10:12:52.000Z,137.5
2018-12-05T10:15:59.000Z,138.2
2018-12-05T10:19:04.939Z,137.5
2018-12-05T10:22:11.853Z,138.2
2018-12-05T10:25:17.708Z,136.8
2018-12-05T10:28:23.989Z,136.8
2018-12-05T10:31:30.099Z,136.8
2018-12-05T10:34:36.173Z,137.5
2018-12-05T10:37:42.117Z,139
2018-12-05T10:40:48.081Z,139.7
2018-12-05T10:43:56.301Z,139.7
2018-12-05T10:47:02.220Z,139
2018-12-05T10:50:08.208Z,138.2
2018-12-05T10:53:14.289Z,136.8
2018-12-05T10:56:20.219Z,139
2018-12-05T10:59:27.392Z,139
2018-12-05T11:02:33.403Z,139.7
2018-12-05T11:05:39.454Z,139.7
2018-12-05T11:08:45.508Z,140.4
2018-12-05T11:11:51.781Z,141.8
2018-12-05T11:14:57.651Z,141.1
2018-12-05T11:18:04.014Z,141.8
2018-12-05T11:21:10.020Z,141.1
2018-12-05T11:24:17.047Z,141.1
2018-12-05T11:27:23.124Z,141.8
2018-12-05T11:30:30.213Z,141.1
2018-12-05T11:33:39.638Z,141.8
2018-12-05T11:36:46.086Z,139
2018-12-05T11:39:55.732Z,137.5
2018-12-05T11:43:02.939Z,136.8
2018-12-05T11:46:09.195Z,136.8
2018-12-05T11:49:15.497Z,138.2
2018-12-05T11:52:22.671Z,142.6
2018-12-05T11:55:29.351Z,143.3
2018-12-05T11:58:35.733Z,141.8
2018-12-05T12:01:43.085Z,139.7
2018-12-05T12:04:50.683Z,141.1
2018-12-05T12:07:57.067Z,133.9
2018-12-05T12:11:03.540Z,134.6
2018-12-05T12:14:11.359Z,133.2
2018-12-05T12:17:17.725Z,133.2
2018-12-05T12:20:27.523Z,136.8
2018-12-05T12:23:34.754Z,139
2018-12-05T12:26:43.093Z,138.2
2018-12-05T12:29:50.053Z,136.1
2018-12-05T12:32:56.092Z,131
2018-12-05T12:36:05.898Z,121
2018-12-05T12:39:15.419Z,133.9
2018-12-05T12:42:28.902Z,133.2
2018-12-05T12:45:35.921Z,131.8
2018-12-05T12:48:44.277Z,131.8
2018-12-05T12:51:51.567Z,140.4
2018-12-05T12:54:59.914Z,140.4
2018-12-05T12:58:07.554Z,137.5
2018-12-05T13:01:19.328Z,136.8
2018-12-05T13:04:32.898Z,138.2
2018-12-05T13:07:43.264Z,140.4
2018-12-05T13:10:51.263Z,141.8
2018-12-05T13:13:58.427Z,141.8
2018-12-05T13:17:04.919Z,141.1
2018-12-05T13:20:16.307Z,141.1
2018-12-05T13:23:23.629Z,141.1
2018-12-05T13:26:32.088Z,141.1
2018-12-05T13:29:39.102Z,141.1
2018-12-05T13:32:48.030Z,141.8
2018-12-05T13:35:58.588Z,141.1
2018-12-05T13:39:05.055Z,141.8
2018-12-05T13:42:13.500Z,141.8
2018-12-05T13:45:19.541Z,141.8
2018-12-05T13:48:26.904Z,141.1
2018-12-05T13:51:33.304Z,133.9
2018-12-05T13:54:39.463Z,137.5
2018-12-05T13:57:45.945Z,133.9
2018-12-05T14:00:51.963Z,139
2018-12-05T14:03:57.978Z,138.2
2018-12-05T14:07:04.013Z,138.2
2018-12-05T14:10:09.945Z,138.2
2018-12-05T14:13:15.929Z,139.7
2018-12-05T14:16:22.964Z,139
2018-12-05T14:19:31.718Z,139
2018-12-05T14:22:38.728Z,139
2018-12-05T14:25:44.935Z,138.2
2018-12-05T14:28:50.954Z,138.2
2018-12-05T14:31:57.112Z,138.2
2018-12-05T14:35:03.050Z,136.8
2018-12-05T14:38:12.982Z,138.2
2018-12-05T14:41:20.468Z,138.2
2018-12-05T14:44:26.372Z,137.5
2018-12-05T14:47:32.330Z,137.5
2018-12-05T14:50:38.681Z,138.2
2018-12-05T14:53:44.868Z,137.5
2018-12-05T14:56:50.813Z,138.2
2018-12-05T14:59:56.804Z,138.2
2018-12-05T15:03:04.291Z,138.2
2018-12-05T15:06:10.442Z,137.5
2018-12-05T15:09:16.421Z,137.5
2018-12-05T15:12:22.491Z,137.5
2018-12-05T15:15:28.834Z,138.2
2018-12-05T15:18:34.775Z,137.5
2018-12-05T15:21:40.752Z,138.2
2018-12-05T15:24:47.138Z,139
2018-12-05T15:27:53.017Z,138.2
2018-12-05T15:30:58.940Z,137.5
2018-12-05T15:34:04.899Z,138.2
2018-12-05T15:37:11.062Z,137.5
2018-12-05T15:40:18.033Z,139
2018-12-05T15:43:24.611Z,138.2
2018-12-05T15:46:31.011Z,139
2018-12-05T15:49:37.883Z,138.2
2018-12-05T15:52:45.577Z,139
2018-12-05T15:55:52.499Z,139
2018-12-05T15:59:01.235Z,139
2018-12-05T16:02:07.449Z,139.7
2018-12-05T16:05:13.413Z,139
2018-12-05T16:08:19.546Z,139
2018-12-05T16:11:25.556Z,139
2018-12-05T16:14:31.433Z,137.5
2018-12-05T16:17:37.469Z,136.1
2018-12-05T16:20:43.435Z,136.8
2018-12-05T16:23:49.360Z,136.8
2018-12-05T16:26:55.251Z,138.2
2018-12-05T16:30:01.488Z,139
2018-12-05T16:33:07.545Z,130.3
2018-12-05T16:36:14.582Z,130.3
2018-12-05T16:39:20.683Z,131.8
2018-12-05T16:42:26.764Z,132.5
2018-12-05T16:45:32.805Z,131.8
2018-12-05T16:48:38.800Z,133.2
2018-12-05T16:51:44.841Z,132.5
2018-12-05T16:54:50.773Z,133.2
2018-12-05T16:57:57.012Z,132.5
2018-12-05T17:01:02.884Z,132.5
2018-12-05T17:04:08.891Z,133.2
2018-12-05T17:07:14.862Z,133.2
2018-12-05T17:10:20.739Z,133.2
2018-12-05T17:13:26.671Z,133.2
2018-12-05T17:16:32.849Z,133.2
2018-12-05T17:19:38.898Z,133.2
2018-12-05T17:22:44.826Z,133.2
2018-12-05T17:25:50.819Z,132.5
2018-12-05T17:28:56.866Z,131.8
2018-12-05T17:32:02.941Z,132.5
2018-12-05T17:35:08.982Z,132.5
2018-12-05T17:38:15.052Z,133.2
2018-12-05T17:41:21.258Z,133.2
2018-12-05T17:44:27.289Z,132.5
2018-12-05T17:47:33.356Z,132.5
2018-12-05T17:50:39.407Z,133.2
2018-12-05T17:53:45.554Z,133.2
2018-12-05T17:56:51.434Z,132.5
2018-12-05T17:59:57.390Z,132.5
2018-12-05T18:03:03.350Z,132.5
2018-12-05T18:06:09.519Z,133.2
2018-12-05T18:09:15.443Z,133.2
2018-12-05T18:12:21.469Z,133.2
2018-12-05T18:15:27.490Z,133.2
2018-12-05T18:18:33.449Z,133.2
2018-12-05T18:21:39.414Z,133.9
2018-12-05T18:24:45.466Z,133.9
2018-12-05T18:27:51.433Z,133.9
2018-12-05T18:30:57.491Z,133.9
2018-12-05T18:34:03.357Z,133.9
2018-12-05T18:37:09.510Z,134.6
2018-12-05T18:40:15.380Z,133.9
2018-12-05T18:43:21.333Z,133.9
2018-12-05T18:46:27.280Z,134.6
2018-12-05T18:49:33.240Z,133.9
2018-12-05T18:52:39.127Z,133.9
2018-12-05T18:55:45.057Z,133.9
2018-12-05T18:58:50.967Z,133.9
2018-12-05T19:01:56.881Z,133.9
2018-12-05T19:05:02.837Z,133.9
2018-12-05T19:08:10.209Z,133.9
2018-12-05T19:11:16.290Z,133.9
2018-12-05T19:14:22.351Z,133.9
2018-12-05T19:17:28.310Z,134.6
2018-12-05T19:20:34.333Z,134.6
2018-12-05T19:23:40.395Z,134.6
2018-12-05T19:26:46.410Z,134.6
2018-12-05T19:29:52.270Z,134.6
2018-12-05T19:32:58.216Z,1.4
2018-12-05T19:36:04.077Z,1.4
2018-12-05T19:39:10.031Z,1.4
2018-12-05T19:42:16.090Z,1.4
2018-12-05T19:45:22.147Z,1.4
2018-12-05T19:48:28.105Z,1.4
2018-12-05T19:51:33.999Z,1.4
2018-12-05T19:54:39.919Z,1.4
2018-12-05T19:57:45.887Z,1.4
2018-12-05T20:00:51.752Z,1.4
2018-12-05T20:03:57.809Z,1.4
2018-12-05T20:07:03.794Z,1.4
2018-12-05T20:10:09.927Z,1.4
2018-12-05T20:13:15.889Z,1.4
2018-12-05T20:16:21.771Z,0
2018-12-05T20:19:27.802Z,0
2018-12-05T20:22:35.506Z,0.4
2018-12-05T20:25:41.380Z,0
2018-12-05T20:28:47.535Z,0
2018-12-05T20:31:53.487Z,0
2018-12-05T20:34:59.458Z,0
2018-12-05T20:38:05.417Z,0
2018-12-05T20:41:11.319Z,0
2018-12-05T20:44:17.198Z,0
2018-12-05T20:47:23.188Z,0
2018-12-05T20:50:29.135Z,0
2018-12-05T20:53:35.093Z,0
2018-12-05T20:56:40.967Z,0
2018-12-05T20:59:46.914Z,0
2018-12-05T21:02:52.935Z,0
2018-12-05T21:05:58.809Z,0
2018-12-05T21:09:04.845Z,0
2018-12-05T21:12:10.808Z,0
2018-12-05T21:15:16.714Z,0
2018-12-05T21:18:22.669Z,0
2018-12-05T21:21:28.628Z,0
2018-12-05T21:24:34.596Z,0
2018-12-05T21:27:40.657Z,0
2018-12-05T21:30:46.679Z,0
2018-12-05T21:33:52.670Z,0
2018-12-05T21:36:58.731Z,0
2018-12-05T21:40:04.690Z,0
2018-12-05T21:43:10.651Z,0
2018-12-05T21:46:16.556Z,0
2018-12-05T21:49:22.473Z,0
2018-12-05T21:52:28.537Z,0
2018-12-05T21:55:34.495Z,0
2018-12-05T21:58:40.377Z,0
2018-12-05T22:01:46.303Z,0
2018-12-05T22:04:52.268Z,0
2018-12-05T22:07:58.137Z,0
2018-12-05T22:11:04.182Z,0
2018-12-05T22:14:10.116Z,0
2018-12-05T22:17:16.086Z,0
2018-12-05T22:20:22.068Z,0
2018-12-05T22:23:28.030Z,0
2018-12-05T22:26:33.995Z,0
2018-12-05T22:29:39.862Z,0
2018-12-05T22:32:45.780Z,0
2018-12-05T22:35:51.759Z,0
2018-12-05T22:38:57.716Z,0
2018-12-05T22:42:03.685Z,0
2018-12-05T22:45:09.609Z,0
2018-12-05T22:48:15.603Z,0
2018-12-05T22:51:21.659Z,0
2018-12-05T22:54:27.717Z,0
2018-12-05T22:57:33.734Z,0
2018-12-05T23:00:39.605Z,0
2018-12-05T23:03:45.607Z,0
2018-12-05T23:06:51.564Z,0
2018-12-05T23:09:57.546Z,0
2018-12-05T23:13:03.580Z,0
2018-12-05T23:16:09.451Z,0
2018-12-05T23:19:15.392Z,0
2018-12-05T23:22:23.986Z,0
2018-12-05T23:25:29.975Z,0
2018-12-05T23:28:35.935Z,0
2018-12-05T23:31:41.808Z,0
2018-12-05T23:34:47.763Z,0
2018-12-05T23:37:53.716Z,0
2018-12-05T23:40:59.595Z,0
2018-12-05T23:44:05.525Z,0
2018-12-05T23:47:11.609Z,0
2018-12-05T23:50:17.659Z,0
2018-12-05T23:53:23.526Z,0
2018-12-05T23:56:29.488Z,0
2018-12-05T23:59:35.594Z,0
